Station: Smithton  

  Atmospheric Gas Attenuation - ITU Rec 676-11   ----------------- dB/100km -----------------
Date Time Temp RH % AH g/m3 Dew Point Wind Direction Speed kph Gust kph Barometer mB Rainfall Since 9am 24GHz 47GHz 76GHz 122GHz 134GHz 241GHz
31/08 19:20 9.2 86 7.68 7 9 11 1026.1 0 17.8 26.2 38.9 101.8 92.7 317.8
31/08 19:10 9.4 86 7.78 7.2 9 13 1026 0 18.0 26.3 39.2 102.6 93.9 321.8
31/08 19:00 9.3 86 7.73 7.1 11 11 1026.1 0 17.9 26.3 39.1 102.2 93.3 319.8
31/08 18:50 9.3 85 7.64 6.9 11 15 1026.1 0 17.7 26.1 38.7 101.2 92.1 315.5
31/08 18:40 9.5 85 7.74 7.1 11 13 1026.1 0 17.9 26.2 39.0 102.1 93.2 319.5
31/08 18:30 9.7 85 7.84 7.3 13 15 1026.2 0 18.1 26.3 39.3 102.9 94.3 323.5
31/08 18:20 9.7 84 7.75 7.1 13 17 1026.3 0 18.0 26.2 38.9 101.9 93.1 319.2
31/08 18:10 9.3 83 7.46 6.6 13 15 1026.2 0 17.3 25.8 37.9 99.2 89.6 307.0
31/08 18:00 9.4 82 7.42 6.5 13 15 1026.2 0 17.3 25.7 37.7 98.7 89.0 304.7
31/08 17:50 9.8 81 7.52 6.7 13 17 1026.2 0 17.5 25.8 37.9 99.3 89.8 307.8
31/08 17:40 10.1 80 7.57 6.8 13 17 1026.3 0 17.5 25.8 38.0 99.4 90.2 309.1
31/08 17:30 10.5 79 7.66 7 17 20 1026.3 0 17.7 25.8 38.2 99.9 90.9 311.7
31/08 17:20 11 77 7.71 7.1 15 20 1026.3 0 17.8 25.7 38.2 99.8 91.0 312.1
31/08 17:10 11.3 76 7.75 7.2 22 28 1026.4 0 17.9 25.7 38.2 99.9 91.2 312.8
31/08 17:00 11.8 76 8 7.7 20 28 1026.6 0 18.4 26.0 39.0 102.0 94.0 322.5
31/08 16:50 11.7 77 8.05 7.8 19 24 1026.5 0 18.5 26.1 39.2 102.7 94.8 325.3
31/08 16:40 11.8 77 8.11 7.9 15 19 1026.7 0 18.6 26.2 39.4 103.2 95.5 327.7
31/08 16:30 11.7 76 7.95 7.6 20 26 1026.9 0 18.3 26.0 38.8 101.6 93.4 320.7
31/08 16:20 11.9 76 8.05 7.8 15 24 1026.9 0 18.5 26.1 39.1 102.4 94.5 324.6
31/08 16:10 12 77 8.21 8.1 20 26 1027.1 0 18.8 26.3 39.7 104.1 96.6 331.7
31/08 16:00 12 76 8.1 7.9 20 26 1027.2 0 18.6 26.1 39.3 102.9 95.1 326.6
31/08 15:50 11.9 75 7.94 7.6 22 30 1027.2 0 18.3 25.9 38.7 101.3 93.1 319.5
31/08 15:40 12.1 75 8.04 7.8 20 28 1027.3 0 18.5 26.0 39.0 102.1 94.2 323.4
31/08 15:30 12.3 75 8.14 8 22 30 1027.4 0 18.7 26.1 39.3 102.9 95.3 327.3
31/08 15:20 12.7 75 8.35 8.4 19 26 1027.4 0 19.1 26.3 40.0 104.7 97.6 335.4
31/08 15:10 12.5 75 8.25 8.2 20 28 1027.4 0 18.9 26.2 39.7 103.9 96.5 331.6
31/08 15:00 12.9 75 8.45 8.6 20 26 1027.4 0 19.3 26.4 40.3 105.5 98.7 339.3
31/08 14:50 13.4 74 8.6 8.9 20 26 1027.4 0 19.6 26.5 40.6 106.5 100.1 344.1
31/08 14:40 13.3 73 8.43 8.6 20 30 1027.6 0 19.2 26.3 40.0 104.8 97.9 336.7
31/08 14:30 13.8 76 9.06 9.6 19 26 1027.6 0 20.6 27.2 42.3 111.0 105.8 364.1
31/08 14:20 13.3 75 8.67 9 22 28 1027.6 0 19.7 26.7 41.0 107.4 101.2 347.9
31/08 14:10 13.5 77 9.01 9.6 19 26 1027.7 0 20.5 27.2 42.3 110.9 105.5 363.1
31/08 14:00 12.8 77 8.63 8.9 20 24 1027.8 0 19.7 26.8 41.1 107.7 101.3 348.3
31/08 13:50 12.9 79 8.9 9.4 19 20 1028 0 20.3 27.2 42.2 110.5 104.8 360.8
31/08 13:40 12.8 80 8.96 9.4 22 28 1028.1 0 20.4 27.4 42.5 111.3 105.8 364.1
31/08 13:30 13.2 80 9.19 9.8 20 26 1028.2 0 20.9 27.6 43.2 113.3 108.4 373.3
31/08 13:20 13.2 78 8.96 9.5 19 20 1028.3 0 20.4 27.2 42.3 110.8 105.3 362.3
31/08 13:10 13.1 78 8.9 9.4 19 24 1028.5 0 20.2 27.2 42.1 110.3 104.6 360.0
31/08 13:00 12.9 78 8.79 9.2 19 26 1028.7 0 20.0 27.1 41.7 109.4 103.4 355.7
31/08 12:50 12.9 79 8.9 9.4 20 26 1028.7 0 20.3 27.2 42.2 110.6 104.9 361.0
31/08 12:40 12.8 79 8.85 9.3 22 28 1028.9 0 20.2 27.2 42.0 110.2 104.4 359.1
31/08 12:30 12.5 79 8.69 9 22 30 1029.1 0 19.8 27.0 41.6 108.9 102.6 352.9
31/08 12:20 12.7 80 8.91 9.3 20 26 1029.2 0 20.3 27.3 42.4 111.0 105.4 362.5
31/08 12:10 12.4 81 8.85 9.2 19 24 1029.2 0 20.2 27.3 42.3 110.8 104.9 361.0
31/08 12:00 12.2 82 8.85 9.2 19 22 1029.3 0 20.2 27.4 42.4 111.1 105.2 362.0
31/08 11:50 12.3 81 8.8 9.1 19 26 1029.5 0 20.1 27.3 42.1 110.4 104.4 359.2
31/08 11:40 12.3 82 8.9 9.3 17 22 1029.7 0 20.3 27.5 42.6 111.6 105.8 364.0
31/08 11:30 12.3 83 9.01 9.5 19 26 1029.8 0 20.5 27.7 43.0 112.8 107.3 369.4
31/08 11:20 12 83 8.85 9.2 19 26 1029.9 0 20.2 27.5 42.5 111.4 105.6 363.1
31/08 11:10 12 83 8.85 9.2 20 26 1030 0 20.2 27.5 42.5 111.5 105.6 363.1
31/08 11:00 12.4 83 9.07 9.6 22 30 1030.1 0 20.6 27.7 43.2 113.4 108.1 371.9
31/08 10:50 12.4 84 9.18 9.8 20 26 1030.1 0 20.9 27.9 43.7 114.6 109.6 377.2
31/08 10:40 12.2 81 8.74 9 19 26 1030.1 0 19.9 27.2 42.0 110.0 103.8 356.9
31/08 10:30 12.7 82 9.13 9.7 17 20 1030.2 0 20.8 27.8 43.3 113.6 108.5 373.4
31/08 10:20 12.4 81 8.85 9.2 19 24 1030.3 0 20.2 27.4 42.3 110.9 105.0 361.3
31/08 10:10 12 82 8.74 9 19 20 1030.3 0 20.0 27.3 42.1 110.3 104.1 357.9
31/08 10:00 12 82 8.74 9 19 24 1030.2 0 20.0 27.3 42.1 110.2 104.1 357.9
31/08 09:50 11.9 84 8.9 9.3 19 24 1030.4 0 20.3 27.6 42.8 112.2 106.4 366.1
31/08 09:40 11.8 83 8.74 9 15 22 1030.4 0 20.0 27.4 42.2 110.6 104.3 358.8
31/08 09:30 11.7 83 8.68 8.9 17 22 1030.4 0 19.8 27.3 42.0 110.0 103.7 356.4
31/08 09:20 11.7 82 8.58 8.7 17 24 1030.3 0 19.6 27.1 41.6 108.9 102.3 351.5
31/08 09:10 11.8 82 8.63 8.8 15 24 1030.4 0 19.7 27.2 41.7 109.3 102.8 353.5
31/08 09:00 11.5 82 8.47 8.5 19 24 1030.5 0 19.4 27.0 41.2 108.0 101.0 347.2
31/08 08:50 11.7 82 8.58 8.7 17 26 1030.5 0 19.6 27.1 41.6 108.9 102.3 351.6
31/08 08:40 11.4 82 8.42 8.4 20 28 1030.5 0 19.3 27.0 41.1 107.5 100.5 345.2
31/08 08:30 11.2 83 8.41 8.4 19 30 1030.6 0 19.3 27.0 41.1 107.7 100.6 345.7
31/08 08:20 11 82 8.21 8.1 24 30 1030.5 0 18.9 26.7 40.4 105.8 98.1 336.9
31/08 08:10 11 84 8.41 8.4 15 20 1030.5 0 19.3 27.1 41.2 108.0 100.9 346.5
31/08 08:00 11 84 8.41 8.4 19 24 1030.4 0 19.3 27.1 41.2 108.0 100.9 346.5
31/08 07:50 10.9 84 8.36 8.3 20 30 1030.3 0 19.2 27.0 41.1 107.5 100.3 344.5
31/08 07:40 10.9 84 8.36 8.3 22 30 1030.1 0 19.2 27.0 41.1 107.5 100.3 344.5
31/08 07:30 10.8 87 8.6 8.7 15 19 1030.1 0 19.7 27.4 42.1 110.4 103.7 356.5
31/08 07:20 10.7 87 8.55 8.6 19 24 1030.1 0 19.6 27.4 42.0 109.9 103.2 354.6
31/08 07:10 10.6 89 8.69 8.9 19 22 1030 0 19.9 27.7 42.6 111.7 105.3 361.8
31/08 07:00 10.5 90 8.73 8.9 15 20 1030 0 20.0 27.8 42.8 112.3 106.0 364.3
31/08 06:50 10.4 91 8.77 9 13 15 1029.9 0 20.1 27.9 43.1 112.8 106.6 366.7
31/08 06:40 10.3 91 8.72 8.9 13 17 1029.8 0 20.0 27.8 42.9 112.4 106.1 364.7
31/08 06:30 10.3 91 8.72 8.9 11 15 1029.8 0 20.0 27.8 42.9 112.4 106.1 364.7
31/08 06:20 10.3 91 8.72 8.9 13 17 1029.8 0 20.0 27.8 42.9 112.4 106.1 364.7
31/08 06:10 10.4 92 8.87 9.2 15 22 1029.7 0 20.3 28.0 43.5 114.0 108.0 371.6
31/08 06:00 10.2 92 8.76 9 13 26 1029.7 0 20.1 27.9 43.1 113.0 106.8 367.1
31/08 05:50 10.2 92 8.76 9 13 15 1029.8 0 20.1 27.9 43.1 113.0 106.8 367.1
31/08 05:40 10.1 92 8.7 8.9 13 20 1029.7 0 20.0 27.8 42.9 112.5 106.1 364.6
31/08 05:30 10.1 92 8.7 8.9 11 15 1029.7 0 20.0 27.8 42.9 112.5 106.1 364.6
31/08 05:20 10.1 91 8.61 8.7 11 13 1029.8 0 19.8 27.7 42.5 111.4 104.8 360.2
31/08 05:10 10.1 91 8.61 8.7 9 11 1029.6 0 19.8 27.7 42.5 111.4 104.8 360.1
31/08 05:00 10.1 90 8.51 8.5 13 15 1029.7 0 19.6 27.5 42.1 110.3 103.4 355.2
31/08 04:50 10.2 90 8.57 8.6 13 17 1029.8 0 19.7 27.6 42.3 110.8 104.1 357.7
31/08 04:40 10.2 89 8.47 8.5 13 17 1029.8 0 19.5 27.4 41.9 109.7 102.7 352.8
31/08 04:30 10.3 87 8.33 8.2 20 26 1029.6 0 19.2 27.1 41.2 108.0 100.6 345.5
31/08 04:20 10.7 85 8.35 8.3 17 19 1029.5 0 19.2 27.0 41.1 107.6 100.3 344.7
31/08 04:10 10.7 85 8.35 8.3 15 20 1029.5 0 19.2 27.0 41.1 107.6 100.3 344.7
31/08 04:00 10.8 85 8.4 8.4 17 20 1029.4 0 19.3 27.1 41.2 108.0 100.9 346.6
31/08 03:50 10.8 84 8.3 8.2 19 22 1029.4 0 19.1 26.9 40.8 106.9 99.5 341.8
31/08 03:40 10.8 85 8.4 8.4 17 22 1029.4 0 19.3 27.1 41.2 108.0 100.9 346.6
31/08 03:30 10.7 85 8.35 8.3 15 19 1029.4 0 19.2 27.0 41.1 107.6 100.3 344.7
31/08 03:20 10.8 85 8.4 8.4 13 17 1029.4 0 19.3 27.1 41.2 108.0 100.9 346.6
31/08 03:10 10.9 84 8.36 8.3 17 19 1029.4 0 19.2 27.0 41.0 107.4 100.2 344.3
31/08 03:00 10.8 84 8.3 8.2 15 17 1029.4 0 19.1 26.9 40.8 106.9 99.5 341.8
31/08 02:50 10.8 84 8.3 8.2 13 15 1029.5 0 19.1 26.9 40.8 106.9 99.5 341.8

Last Refresh: 31-Aug-2026 18:57:10

Bureau of Meteorology